QAK6432 MKJP-SKBQ
Flight info
| Callsign | QAK6432 |
|---|---|
| Flight time | 1h 27m |
| Altitude | 35000 |
| Route | ALPEN3 ALPEN DCT ADSOV UP525 MORGI MORGI1B |
| Aircraft | B738/M-SDE2E3FGHIRWXY/LB1 |
Departure
| Time | 2026-05-09 03:12 |
|---|---|
| Airport | Norman Manley International Airport (MKJP) |
Arrival
| Time | 2026-05-09 04:40 |
|---|---|
| Airport | Ernesto Cortissoz International Airport (SKBQ) |
| Time | Latitude | Longitude | Altitude | Speed | Heading |
|---|---|---|---|---|---|
| 2026-05-09 02:59 | 17.93568 | -76.77981 | 18 ft | 0 kts | 355° |
| 2026-05-09 03:05 | 17.93550 | -76.77979 | 19 ft | 4 kts | 355° |
| 2026-05-09 03:05 | 17.93529 | -76.77976 | 19 ft | 2 kts | 349° |
| 2026-05-09 03:06 | 17.93516 | -76.77972 | 19 ft | 1 kts | 327° |
| 2026-05-09 03:06 | 17.93506 | -76.77963 | 19 ft | 1 kts | 304° |
| 2026-05-09 03:06 | 17.93502 | -76.77956 | 19 ft | 0 kts | 289° |
| 2026-05-09 03:07 | 17.93503 | -76.77958 | 19 ft | 0 kts | 289° |
| 2026-05-09 03:07 | 17.93507 | -76.77975 | 19 ft | 4 kts | 278° |
| 2026-05-09 03:07 | 17.93501 | -76.78015 | 18 ft | 6 kts | 252° |
| 2026-05-09 03:07 | 17.93493 | -76.78069 | 18 ft | 8 kts | 264° |
| 2026-05-09 03:08 | 17.93497 | -76.78135 | 18 ft | 9 kts | 281° |
| 2026-05-09 03:08 | 17.93520 | -76.78211 | 18 ft | 12 kts | 291° |
| 2026-05-09 03:08 | 17.93557 | -76.78309 | 18 ft | 16 kts | 292° |
| 2026-05-09 03:08 | 17.93605 | -76.78433 | 18 ft | 20 kts | 294° |
| 2026-05-09 03:09 | 17.93664 | -76.78584 | 18 ft | 23 kts | 292° |
| 2026-05-09 03:09 | 17.93729 | -76.78753 | 18 ft | 26 kts | 291° |
| 2026-05-09 03:09 | 17.93800 | -76.78938 | 18 ft | 27 kts | 291° |
| 2026-05-09 03:09 | 17.93875 | -76.79129 | 18 ft | 29 kts | 292° |
| 2026-05-09 03:10 | 17.93951 | -76.79330 | 18 ft | 27 kts | 292° |
| 2026-05-09 03:10 | 17.94025 | -76.79516 | 18 ft | 27 kts | 291° |
| 2026-05-09 03:10 | 17.94089 | -76.79700 | 18 ft | 26 kts | 281° |
| 2026-05-09 03:10 | 17.94103 | -76.79877 | 16 ft | 22 kts | 249° |
| 2026-05-09 03:11 | 17.94008 | -76.79903 | 17 ft | 12 kts | 87° |
| 2026-05-09 03:11 | 17.94002 | -76.79871 | 18 ft | 0 kts | 119° |
| 2026-05-09 03:11 | 17.93996 | -76.79859 | 18 ft | 8 kts | 120° |
| 2026-05-09 03:11 | 17.93938 | -76.79724 | 19 ft | 34 kts | 112° |
| 2026-05-09 03:12 | 17.93723 | -76.79170 | 20 ft | 126 kts | 112° |
| 2026-05-09 03:12 | 17.93312 | -76.78087 | 89 ft | 187 kts | 111° |
| 2026-05-09 03:12 | 17.92805 | -76.76747 | 653 ft | 205 kts | 111° |
| 2026-05-09 03:12 | 17.91942 | -76.75352 | 527 ft | 255 kts | 134° |
| 2026-05-09 03:13 | 17.88419 | -76.73755 | 543 ft | 285 kts | 174° |
| 2026-05-09 03:13 | 17.86600 | -76.73946 | 378 ft | 249 kts | 196° |
| 2026-05-09 03:13 | 17.85054 | -76.74651 | 408 ft | 240 kts | 203° |
| 2026-05-09 03:14 | 17.83425 | -76.75017 | 411 ft | 245 kts | 180° |
| 2026-05-09 03:14 | 17.81775 | -76.74721 | 949 ft | 246 kts | 167° |
| 2026-05-09 03:14 | 17.80097 | -76.74269 | 1491 ft | 252 kts | 165° |
| 2026-05-09 03:14 | 17.78404 | -76.73793 | 1786 ft | 255 kts | 165° |
| 2026-05-09 03:15 | 17.76703 | -76.73313 | 2250 ft | 252 kts | 165° |
| 2026-05-09 03:15 | 17.75017 | -76.72838 | 2804 ft | 254 kts | 165° |
| 2026-05-09 03:15 | 17.73299 | -76.72353 | 3383 ft | 257 kts | 165° |
| 2026-05-09 03:15 | 17.71583 | -76.71870 | 3955 ft | 259 kts | 165° |
| 2026-05-09 03:16 | 17.69833 | -76.71376 | 4534 ft | 262 kts | 165° |
| 2026-05-09 03:16 | 17.68073 | -76.70880 | 5127 ft | 275 kts | 165° |
| 2026-05-09 03:16 | 17.66139 | -76.70335 | 5769 ft | 306 kts | 165° |
| 2026-05-09 03:16 | 17.63978 | -76.69727 | 6493 ft | 334 kts | 165° |
| 2026-05-09 03:17 | 17.61702 | -76.69086 | 7241 ft | 350 kts | 165° |
| 2026-05-09 03:17 | 17.59345 | -76.68421 | 7889 ft | 350 kts | 165° |
| 2026-05-09 03:17 | 17.57016 | -76.67766 | 8442 ft | 348 kts | 165° |
| 2026-05-09 03:17 | 17.54673 | -76.67106 | 9015 ft | 347 kts | 165° |
| 2026-05-09 03:18 | 17.52357 | -76.66454 | 9582 ft | 346 kts | 165° |
| 2026-05-09 03:18 | 17.50060 | -76.65807 | 10146 ft | 346 kts | 165° |
| 2026-05-09 03:18 | 17.47728 | -76.65151 | 10733 ft | 353 kts | 165° |
| 2026-05-09 03:18 | 17.45306 | -76.64470 | 11376 ft | 373 kts | 165° |
| 2026-05-09 03:19 | 17.42784 | -76.63761 | 12044 ft | 376 kts | 165° |
| 2026-05-09 03:19 | 17.40271 | -76.63055 | 12620 ft | 375 kts | 165° |
| 2026-05-09 03:19 | 17.37783 | -76.62354 | 13182 ft | 373 kts | 165° |
| 2026-05-09 03:19 | 17.35290 | -76.61654 | 13748 ft | 373 kts | 165° |
| 2026-05-09 03:20 | 17.32732 | -76.60934 | 14364 ft | 388 kts | 165° |
| 2026-05-09 03:20 | 17.30098 | -76.60235 | 15016 ft | 401 kts | 169° |
| 2026-05-09 03:20 | 17.27326 | -76.59991 | 15648 ft | 403 kts | 177° |
| 2026-05-09 03:20 | 17.24547 | -76.59917 | 16259 ft | 401 kts | 179° |
| 2026-05-09 03:21 | 17.21758 | -76.59885 | 16820 ft | 400 kts | 179° |
| 2026-05-09 03:21 | 17.18963 | -76.59866 | 17423 ft | 410 kts | 179° |
| 2026-05-09 03:21 | 17.16113 | -76.59849 | 18093 ft | 420 kts | 179° |
| 2026-05-09 03:21 | 17.13147 | -76.59834 | 18787 ft | 428 kts | 179° |
| 2026-05-09 03:22 | 17.10205 | -76.59818 | 19422 ft | 428 kts | 179° |
| 2026-05-09 03:22 | 17.07229 | -76.59803 | 19972 ft | 426 kts | 179° |
| 2026-05-09 03:22 | 17.04306 | -76.59788 | 20535 ft | 425 kts | 179° |
| 2026-05-09 03:22 | 17.01350 | -76.59772 | 21104 ft | 424 kts | 179° |
| 2026-05-09 03:23 | 16.98436 | -76.59757 | 21667 ft | 423 kts | 179° |
| 2026-05-09 03:23 | 16.95492 | -76.59742 | 22236 ft | 422 kts | 179° |
| 2026-05-09 03:23 | 16.92593 | -76.59727 | 22799 ft | 422 kts | 179° |
| 2026-05-09 03:23 | 16.89660 | -76.59712 | 23368 ft | 421 kts | 179° |
| 2026-05-09 03:24 | 16.86772 | -76.59697 | 23931 ft | 420 kts | 179° |
| 2026-05-09 03:24 | 16.83825 | -76.59682 | 24520 ft | 426 kts | 179° |
| 2026-05-09 03:24 | 16.80841 | -76.59666 | 25104 ft | 431 kts | 179° |
| 2026-05-09 03:24 | 16.77862 | -76.59650 | 25679 ft | 436 kts | 179° |
| 2026-05-09 03:25 | 16.74813 | -76.59635 | 26262 ft | 440 kts | 179° |
| 2026-05-09 03:25 | 16.71777 | -76.59619 | 26835 ft | 444 kts | 179° |
| 2026-05-09 03:25 | 16.68680 | -76.59603 | 27410 ft | 445 kts | 179° |
| 2026-05-09 03:25 | 16.65630 | -76.59459 | 27937 ft | 444 kts | 172° |
| 2026-05-09 03:26 | 16.62614 | -76.58798 | 28535 ft | 442 kts | 166° |
| 2026-05-09 03:26 | 16.59682 | -76.57970 | 29093 ft | 442 kts | 164° |
| 2026-05-09 03:26 | 16.56729 | -76.57089 | 29664 ft | 441 kts | 163° |
| 2026-05-09 03:26 | 16.53784 | -76.56199 | 30233 ft | 440 kts | 163° |
| 2026-05-09 03:27 | 16.50887 | -76.55319 | 30795 ft | 439 kts | 163° |
| 2026-05-09 03:27 | 16.47956 | -76.54430 | 31365 ft | 438 kts | 163° |
| 2026-05-09 03:27 | 16.45070 | -76.53554 | 31927 ft | 437 kts | 163° |
| 2026-05-09 03:27 | 16.42151 | -76.52669 | 32497 ft | 436 kts | 163° |
| 2026-05-09 03:28 | 16.39279 | -76.51798 | 33059 ft | 435 kts | 163° |
| 2026-05-09 03:28 | 16.36379 | -76.50918 | 33599 ft | 434 kts | 163° |
| 2026-05-09 03:28 | 16.33484 | -76.50040 | 34118 ft | 432 kts | 163° |
| 2026-05-09 03:28 | 16.30635 | -76.49177 | 34626 ft | 431 kts | 163° |
| 2026-05-09 03:29 | 16.27749 | -76.48302 | 34963 ft | 434 kts | 163° |
| 2026-05-09 03:29 | 16.24875 | -76.47433 | 34961 ft | 435 kts | 163° |
| 2026-05-09 03:29 | 16.19114 | -76.45689 | 34968 ft | 431 kts | 163° |
| 2026-05-09 03:30 | 16.13386 | -76.43955 | 34986 ft | 431 kts | 163° |
| 2026-05-09 03:30 | 16.07611 | -76.42210 | 34998 ft | 432 kts | 163° |
| 2026-05-09 03:31 | 16.01874 | -76.40475 | 34999 ft | 431 kts | 163° |
| 2026-05-09 03:31 | 15.96137 | -76.38743 | 35000 ft | 431 kts | 163° |
| 2026-05-09 03:32 | 15.90400 | -76.37012 | 35000 ft | 431 kts | 163° |
| 2026-05-09 03:32 | 15.84656 | -76.35279 | 35000 ft | 431 kts | 163° |
| 2026-05-09 03:33 | 15.78916 | -76.33549 | 35000 ft | 431 kts | 164° |
| 2026-05-09 03:33 | 15.73179 | -76.31821 | 35000 ft | 431 kts | 164° |
| 2026-05-09 03:34 | 15.67442 | -76.30093 | 35000 ft | 431 kts | 164° |
| 2026-05-09 03:34 | 15.61704 | -76.28366 | 35000 ft | 431 kts | 164° |
| 2026-05-09 03:35 | 15.55966 | -76.26641 | 35000 ft | 431 kts | 164° |
| 2026-05-09 03:35 | 15.50189 | -76.24905 | 35000 ft | 431 kts | 164° |
| 2026-05-09 03:36 | 15.44451 | -76.23181 | 35000 ft | 431 kts | 164° |
| 2026-05-09 03:36 | 15.38713 | -76.21458 | 35000 ft | 431 kts | 164° |
| 2026-05-09 03:37 | 15.32975 | -76.19737 | 35000 ft | 431 kts | 164° |
| 2026-05-09 03:37 | 15.27237 | -76.18016 | 35000 ft | 431 kts | 164° |
| 2026-05-09 03:38 | 15.21499 | -76.16296 | 35000 ft | 431 kts | 164° |
| 2026-05-09 03:38 | 15.15760 | -76.14577 | 35000 ft | 431 kts | 164° |
| 2026-05-09 03:39 | 15.10024 | -76.12860 | 34989 ft | 429 kts | 164° |
| 2026-05-09 03:39 | 15.04323 | -76.11154 | 34971 ft | 424 kts | 164° |
| 2026-05-09 03:40 | 14.98659 | -76.09448 | 34566 ft | 432 kts | 163° |
| 2026-05-09 03:40 | 14.95811 | -76.08571 | 34074 ft | 430 kts | 163° |
| 2026-05-09 03:40 | 14.92957 | -76.07693 | 33561 ft | 425 kts | 163° |
| 2026-05-09 03:41 | 14.90182 | -76.06839 | 33001 ft | 415 kts | 163° |
| 2026-05-09 03:41 | 14.87446 | -76.05997 | 32415 ft | 408 kts | 163° |
| 2026-05-09 03:41 | 14.84772 | -76.05175 | 31929 ft | 404 kts | 163° |
| 2026-05-09 03:41 | 14.82088 | -76.04349 | 31445 ft | 400 kts | 163° |
| 2026-05-09 03:42 | 14.79427 | -76.03532 | 30946 ft | 397 kts | 163° |
| 2026-05-09 03:42 | 14.76820 | -76.02731 | 30450 ft | 395 kts | 163° |
| 2026-05-09 03:42 | 14.74196 | -76.01925 | 29948 ft | 391 kts | 163° |
| 2026-05-09 03:42 | 14.71627 | -76.01135 | 29454 ft | 389 kts | 163° |
| 2026-05-09 03:43 | 14.69037 | -76.00340 | 28951 ft | 386 kts | 163° |
| 2026-05-09 03:43 | 14.66506 | -75.99563 | 28459 ft | 383 kts | 163° |
| 2026-05-09 03:43 | 14.63960 | -75.98782 | 27962 ft | 380 kts | 163° |
| 2026-05-09 03:43 | 14.61466 | -75.98016 | 27473 ft | 377 kts | 163° |
| 2026-05-09 03:44 | 14.58956 | -75.97247 | 26979 ft | 375 kts | 163° |
| 2026-05-09 03:44 | 14.56496 | -75.96492 | 26497 ft | 372 kts | 163° |
| 2026-05-09 03:44 | 14.54020 | -75.95733 | 26009 ft | 370 kts | 163° |
| 2026-05-09 03:44 | 14.51562 | -75.94979 | 25520 ft | 367 kts | 163° |
| 2026-05-09 03:45 | 14.49152 | -75.94240 | 25042 ft | 365 kts | 163° |
| 2026-05-09 03:45 | 14.46725 | -75.93497 | 24558 ft | 362 kts | 163° |
| 2026-05-09 03:45 | 14.44348 | -75.92768 | 24085 ft | 360 kts | 163° |
| 2026-05-09 03:45 | 14.41953 | -75.92035 | 23607 ft | 357 kts | 163° |
| 2026-05-09 03:46 | 14.39606 | -75.91316 | 23136 ft | 355 kts | 163° |
| 2026-05-09 03:46 | 14.37242 | -75.90592 | 22658 ft | 353 kts | 163° |
| 2026-05-09 03:46 | 14.34920 | -75.89882 | 22187 ft | 351 kts | 163° |
| 2026-05-09 03:46 | 14.32584 | -75.89166 | 21709 ft | 349 kts | 163° |
| 2026-05-09 03:47 | 14.30292 | -75.88465 | 21239 ft | 347 kts | 163° |
| 2026-05-09 03:47 | 14.27992 | -75.87762 | 20711 ft | 339 kts | 163° |
| 2026-05-09 03:47 | 14.25753 | -75.87077 | 20184 ft | 334 kts | 163° |
| 2026-05-09 03:47 | 14.23554 | -75.86404 | 19720 ft | 333 kts | 163° |
| 2026-05-09 03:48 | 14.21330 | -75.85725 | 19246 ft | 333 kts | 163° |
| 2026-05-09 03:48 | 14.19141 | -75.85055 | 18777 ft | 332 kts | 163° |
| 2026-05-09 03:48 | 14.16929 | -75.84380 | 18302 ft | 331 kts | 163° |
| 2026-05-09 03:48 | 14.14752 | -75.83715 | 17833 ft | 330 kts | 163° |
| 2026-05-09 03:49 | 14.12552 | -75.83043 | 17358 ft | 329 kts | 163° |
| 2026-05-09 03:49 | 14.10358 | -75.82372 | 16883 ft | 328 kts | 163° |
| 2026-05-09 03:49 | 14.08198 | -75.81713 | 16414 ft | 327 kts | 163° |
| 2026-05-09 03:49 | 14.06016 | -75.81047 | 15939 ft | 326 kts | 163° |
| 2026-05-09 03:50 | 14.03849 | -75.80386 | 15466 ft | 325 kts | 163° |
| 2026-05-09 03:50 | 14.01704 | -75.79731 | 14996 ft | 324 kts | 163° |
| 2026-05-09 03:50 | 13.99541 | -75.79071 | 14521 ft | 323 kts | 163° |
| 2026-05-09 03:50 | 13.97413 | -75.78422 | 14052 ft | 322 kts | 163° |
| 2026-05-09 03:51 | 13.95290 | -75.77775 | 13522 ft | 310 kts | 163° |
| 2026-05-09 03:51 | 13.93270 | -75.77158 | 13028 ft | 305 kts | 163° |
| 2026-05-09 03:51 | 13.91230 | -75.76537 | 12562 ft | 306 kts | 163° |
| 2026-05-09 03:51 | 13.89212 | -75.75922 | 12096 ft | 306 kts | 163° |
| 2026-05-09 03:52 | 13.87163 | -75.75298 | 11624 ft | 307 kts | 163° |
| 2026-05-09 03:52 | 13.85139 | -75.74681 | 11157 ft | 307 kts | 163° |
| 2026-05-09 03:52 | 13.83086 | -75.74056 | 10684 ft | 307 kts | 163° |
| 2026-05-09 03:52 | 13.81060 | -75.73438 | 10217 ft | 307 kts | 163° |
| 2026-05-09 03:53 | 13.79007 | -75.72813 | 9743 ft | 307 kts | 163° |
| 2026-05-09 03:53 | 13.76954 | -75.72188 | 9270 ft | 307 kts | 163° |
| 2026-05-09 03:53 | 13.74930 | -75.71571 | 8802 ft | 307 kts | 163° |
| 2026-05-09 03:53 | 13.72881 | -75.70948 | 8328 ft | 306 kts | 163° |
| 2026-05-09 03:54 | 13.70862 | -75.70334 | 7859 ft | 306 kts | 163° |
| 2026-05-09 03:54 | 13.68819 | -75.69712 | 7385 ft | 305 kts | 163° |
| 2026-05-09 03:54 | 13.66825 | -75.69106 | 7174 ft | 295 kts | 163° |
| 2026-05-09 03:54 | 13.64898 | -75.68520 | 7132 ft | 281 kts | 163° |
| 2026-05-09 03:55 | 13.63092 | -75.67970 | 7133 ft | 268 kts | 163° |
| 2026-05-09 03:55 | 13.61305 | -75.67427 | 7133 ft | 268 kts | 163° |
| 2026-05-09 03:55 | 13.59500 | -75.66878 | 7148 ft | 271 kts | 163° |
| 2026-05-09 03:55 | 13.57703 | -75.66332 | 7146 ft | 272 kts | 163° |
| 2026-05-09 03:56 | 13.55879 | -75.65778 | 7146 ft | 272 kts | 163° |
| 2026-05-09 03:56 | 13.54081 | -75.65231 | 7146 ft | 272 kts | 163° |
| 2026-05-09 03:56 | 13.52259 | -75.64678 | 7146 ft | 272 kts | 163° |
| 2026-05-09 03:56 | 13.50458 | -75.64130 | 7146 ft | 272 kts | 163° |
| 2026-05-09 03:57 | 13.48636 | -75.63577 | 7146 ft | 272 kts | 163° |
| 2026-05-09 03:57 | 13.46839 | -75.63032 | 7146 ft | 272 kts | 163° |
| 2026-05-09 03:57 | 13.45018 | -75.62479 | 7146 ft | 272 kts | 163° |
| 2026-05-09 03:57 | 13.43196 | -75.61925 | 7146 ft | 272 kts | 163° |
| 2026-05-09 03:58 | 13.41399 | -75.61380 | 7146 ft | 272 kts | 163° |
| 2026-05-09 03:58 | 13.39577 | -75.60828 | 7146 ft | 272 kts | 163° |
| 2026-05-09 03:58 | 13.37780 | -75.60282 | 7146 ft | 272 kts | 163° |
| 2026-05-09 03:58 | 13.35958 | -75.59730 | 7146 ft | 272 kts | 163° |
| 2026-05-09 03:59 | 13.34161 | -75.59184 | 7146 ft | 272 kts | 163° |
| 2026-05-09 03:59 | 13.32340 | -75.58632 | 7146 ft | 272 kts | 163° |
| 2026-05-09 03:59 | 13.30542 | -75.58087 | 7146 ft | 272 kts | 163° |
| 2026-05-09 03:59 | 13.28721 | -75.57535 | 7146 ft | 272 kts | 163° |
| 2026-05-09 04:00 | 13.26899 | -75.56982 | 7146 ft | 272 kts | 163° |
| 2026-05-09 04:00 | 13.25101 | -75.56438 | 7146 ft | 272 kts | 163° |
| 2026-05-09 04:00 | 13.23279 | -75.55885 | 7146 ft | 272 kts | 163° |
| 2026-05-09 04:00 | 13.21478 | -75.55340 | 7146 ft | 272 kts | 163° |
| 2026-05-09 04:01 | 13.19657 | -75.54787 | 7146 ft | 272 kts | 163° |
| 2026-05-09 04:01 | 13.17859 | -75.54243 | 7146 ft | 272 kts | 163° |
| 2026-05-09 04:01 | 13.16037 | -75.53691 | 7146 ft | 272 kts | 163° |
| 2026-05-09 04:01 | 13.14240 | -75.53147 | 7146 ft | 272 kts | 163° |
| 2026-05-09 04:02 | 13.12418 | -75.52595 | 7146 ft | 272 kts | 163° |
| 2026-05-09 04:02 | 13.10620 | -75.52052 | 7146 ft | 272 kts | 163° |
| 2026-05-09 04:02 | 13.08798 | -75.51500 | 7146 ft | 272 kts | 163° |
| 2026-05-09 04:02 | 13.06976 | -75.50948 | 7146 ft | 272 kts | 163° |
| 2026-05-09 04:03 | 13.05179 | -75.50404 | 7146 ft | 272 kts | 163° |
| 2026-05-09 04:03 | 13.03357 | -75.49854 | 7146 ft | 272 kts | 163° |
| 2026-05-09 04:03 | 13.01559 | -75.49309 | 7146 ft | 272 kts | 163° |
| 2026-05-09 04:03 | 12.99737 | -75.48759 | 7146 ft | 272 kts | 163° |
| 2026-05-09 04:04 | 12.97940 | -75.48216 | 7146 ft | 272 kts | 163° |
| 2026-05-09 04:04 | 12.96118 | -75.47665 | 7146 ft | 272 kts | 163° |
| 2026-05-09 04:04 | 12.94297 | -75.47114 | 7146 ft | 272 kts | 163° |
| 2026-05-09 04:04 | 12.92499 | -75.46571 | 7146 ft | 272 kts | 163° |
| 2026-05-09 04:05 | 12.90697 | -75.46026 | 7146 ft | 272 kts | 163° |
| 2026-05-09 04:05 | 12.88871 | -75.45474 | 7146 ft | 272 kts | 163° |
| 2026-05-09 04:05 | 12.87074 | -75.44931 | 7146 ft | 272 kts | 163° |
| 2026-05-09 04:05 | 12.85252 | -75.44381 | 7146 ft | 272 kts | 163° |
| 2026-05-09 04:06 | 12.83430 | -75.43831 | 7146 ft | 272 kts | 163° |
| 2026-05-09 04:06 | 12.81580 | -75.43272 | 7200 ft | 300 kts | 163° |
| 2026-05-09 04:06 | 12.79405 | -75.42615 | 7301 ft | 348 kts | 163° |
| 2026-05-09 04:06 | 12.76973 | -75.41882 | 7375 ft | 382 kts | 163° |
| 2026-05-09 04:07 | 12.74411 | -75.41108 | 7233 ft | 380 kts | 163° |
| 2026-05-09 04:07 | 12.71924 | -75.40358 | 7144 ft | 374 kts | 163° |
| 2026-05-09 04:07 | 12.69428 | -75.39605 | 7151 ft | 373 kts | 163° |
| 2026-05-09 04:07 | 12.66929 | -75.38850 | 7148 ft | 374 kts | 163° |
| 2026-05-09 04:08 | 12.64454 | -75.38104 | 7146 ft | 374 kts | 163° |
| 2026-05-09 04:08 | 12.61983 | -75.37360 | 7146 ft | 374 kts | 163° |
| 2026-05-09 04:08 | 12.59475 | -75.36603 | 7013 ft | 375 kts | 163° |
| 2026-05-09 04:08 | 12.56964 | -75.35847 | 6756 ft | 375 kts | 163° |
| 2026-05-09 04:09 | 12.54495 | -75.35103 | 6644 ft | 374 kts | 163° |
| 2026-05-09 04:09 | 12.51991 | -75.34348 | 6518 ft | 374 kts | 163° |
| 2026-05-09 04:09 | 12.49511 | -75.33601 | 6396 ft | 375 kts | 163° |
| 2026-05-09 04:09 | 12.47016 | -75.32850 | 6280 ft | 376 kts | 163° |
| 2026-05-09 04:10 | 12.44505 | -75.32094 | 6160 ft | 374 kts | 163° |
| 2026-05-09 04:10 | 12.42006 | -75.31342 | 6155 ft | 373 kts | 163° |
| 2026-05-09 04:10 | 12.39538 | -75.30599 | 6147 ft | 374 kts | 163° |
| 2026-05-09 04:10 | 12.37034 | -75.29845 | 6146 ft | 374 kts | 163° |
| 2026-05-09 04:11 | 12.34569 | -75.29105 | 6145 ft | 373 kts | 163° |
| 2026-05-09 04:11 | 12.32073 | -75.28354 | 6146 ft | 373 kts | 163° |
| 2026-05-09 04:11 | 12.29610 | -75.27613 | 6146 ft | 373 kts | 163° |
| 2026-05-09 04:11 | 12.27113 | -75.26862 | 6146 ft | 373 kts | 163° |
| 2026-05-09 04:12 | 12.24649 | -75.26122 | 6146 ft | 373 kts | 163° |
| 2026-05-09 04:12 | 12.22152 | -75.25371 | 6146 ft | 373 kts | 163° |
| 2026-05-09 04:12 | 12.19655 | -75.24621 | 6146 ft | 373 kts | 163° |
| 2026-05-09 04:12 | 12.17192 | -75.23881 | 6146 ft | 373 kts | 163° |
| 2026-05-09 04:13 | 12.14690 | -75.23129 | 6146 ft | 373 kts | 163° |
| 2026-05-09 04:13 | 12.12225 | -75.22389 | 6146 ft | 373 kts | 163° |
| 2026-05-09 04:13 | 12.09728 | -75.21639 | 6146 ft | 373 kts | 163° |
| 2026-05-09 04:13 | 12.07265 | -75.20900 | 6146 ft | 373 kts | 163° |
| 2026-05-09 04:14 | 12.04768 | -75.20151 | 6146 ft | 373 kts | 163° |
| 2026-05-09 04:14 | 12.02335 | -75.19421 | 6117 ft | 358 kts | 163° |
| 2026-05-09 04:14 | 12.00013 | -75.18723 | 6119 ft | 334 kts | 163° |
| 2026-05-09 04:14 | 11.97874 | -75.18082 | 6121 ft | 313 kts | 163° |
| 2026-05-09 04:15 | 11.95831 | -75.17469 | 6068 ft | 297 kts | 163° |
| 2026-05-09 04:15 | 11.93924 | -75.16898 | 6067 ft | 280 kts | 163° |
| 2026-05-09 04:15 | 11.92082 | -75.16345 | 6089 ft | 273 kts | 163° |
| 2026-05-09 04:15 | 11.90245 | -75.15794 | 6127 ft | 276 kts | 163° |
| 2026-05-09 04:16 | 11.88409 | -75.15244 | 6145 ft | 279 kts | 163° |
| 2026-05-09 04:16 | 11.86539 | -75.14683 | 6146 ft | 279 kts | 163° |
| 2026-05-09 04:16 | 11.84694 | -75.14131 | 6145 ft | 279 kts | 163° |
| 2026-05-09 04:16 | 11.82823 | -75.13570 | 6146 ft | 279 kts | 163° |
| 2026-05-09 04:17 | 11.80982 | -75.13019 | 6146 ft | 279 kts | 163° |
| 2026-05-09 04:17 | 11.79115 | -75.12460 | 6146 ft | 279 kts | 163° |
| 2026-05-09 04:17 | 11.77273 | -75.11908 | 6146 ft | 279 kts | 163° |
| 2026-05-09 04:17 | 11.75406 | -75.11349 | 6146 ft | 279 kts | 163° |
| 2026-05-09 04:18 | 11.73560 | -75.10796 | 6146 ft | 279 kts | 163° |
| 2026-05-09 04:18 | 11.71693 | -75.10237 | 6146 ft | 279 kts | 163° |
| 2026-05-09 04:18 | 11.69850 | -75.09686 | 6146 ft | 278 kts | 163° |
| 2026-05-09 04:18 | 11.68026 | -75.09140 | 6087 ft | 266 kts | 163° |
| 2026-05-09 04:19 | 11.66300 | -75.08625 | 6003 ft | 256 kts | 165° |
| 2026-05-09 04:19 | 11.64554 | -75.08339 | 5891 ft | 254 kts | 172° |
| 2026-05-09 04:19 | 11.62779 | -75.08110 | 5605 ft | 257 kts | 173° |
| 2026-05-09 04:19 | 11.61026 | -75.07895 | 5358 ft | 256 kts | 173° |
| 2026-05-09 04:20 | 11.59277 | -75.07685 | 5107 ft | 254 kts | 173° |
| 2026-05-09 04:20 | 11.57522 | -75.07478 | 4847 ft | 252 kts | 173° |
| 2026-05-09 04:20 | 11.55794 | -75.07275 | 4589 ft | 251 kts | 173° |
| 2026-05-09 04:20 | 11.54067 | -75.07073 | 4402 ft | 242 kts | 173° |
| 2026-05-09 04:21 | 11.52449 | -75.06885 | 4168 ft | 230 kts | 173° |
| 2026-05-09 04:21 | 11.50905 | -75.06705 | 4143 ft | 218 kts | 173° |
| 2026-05-09 04:21 | 11.47919 | -75.06357 | 4149 ft | 218 kts | 173° |
| 2026-05-09 04:22 | 11.46424 | -75.06183 | 4147 ft | 219 kts | 173° |
| 2026-05-09 04:22 | 11.44905 | -75.06006 | 4146 ft | 219 kts | 173° |
| 2026-05-09 04:22 | 11.43387 | -75.05830 | 4146 ft | 219 kts | 173° |
| 2026-05-09 04:22 | 11.41889 | -75.05656 | 4146 ft | 219 kts | 173° |
| 2026-05-09 04:23 | 11.40371 | -75.05479 | 4146 ft | 219 kts | 173° |
| 2026-05-09 04:23 | 11.38873 | -75.05305 | 4146 ft | 219 kts | 173° |
| 2026-05-09 04:23 | 11.37358 | -75.05128 | 4144 ft | 218 kts | 173° |
| 2026-05-09 04:23 | 11.35881 | -75.04957 | 4200 ft | 210 kts | 173° |
| 2026-05-09 04:24 | 11.34437 | -75.04789 | 4156 ft | 207 kts | 173° |
| 2026-05-09 04:24 | 11.33010 | -75.04623 | 4155 ft | 207 kts | 173° |
| 2026-05-09 04:24 | 11.31568 | -75.04455 | 4158 ft | 208 kts | 173° |
| 2026-05-09 04:24 | 11.30141 | -75.04289 | 4155 ft | 208 kts | 173° |
| 2026-05-09 04:25 | 11.28694 | -75.04121 | 4151 ft | 208 kts | 173° |
| 2026-05-09 04:25 | 11.27268 | -75.03955 | 4149 ft | 208 kts | 173° |
| 2026-05-09 04:25 | 11.25818 | -75.03787 | 4148 ft | 208 kts | 173° |
| 2026-05-09 04:25 | 11.24392 | -75.03621 | 4146 ft | 208 kts | 173° |
| 2026-05-09 04:26 | 11.22946 | -75.03453 | 4146 ft | 208 kts | 173° |
| 2026-05-09 04:26 | 11.21519 | -75.03288 | 4146 ft | 208 kts | 173° |
| 2026-05-09 04:26 | 11.20073 | -75.03120 | 4146 ft | 208 kts | 173° |
| 2026-05-09 04:26 | 11.18628 | -75.02952 | 4146 ft | 208 kts | 173° |
| 2026-05-09 04:27 | 11.17201 | -75.02786 | 4146 ft | 208 kts | 173° |
| 2026-05-09 04:27 | 11.15755 | -75.02618 | 4146 ft | 208 kts | 173° |
| 2026-05-09 04:27 | 11.14328 | -75.02453 | 4146 ft | 208 kts | 173° |
| 2026-05-09 04:27 | 11.12879 | -75.02284 | 4146 ft | 208 kts | 173° |
| 2026-05-09 04:28 | 11.11453 | -75.02119 | 4146 ft | 208 kts | 173° |
| 2026-05-09 04:28 | 11.10004 | -75.01951 | 4146 ft | 208 kts | 173° |
| 2026-05-09 04:28 | 11.08574 | -75.01784 | 4146 ft | 208 kts | 173° |
| 2026-05-09 04:28 | 11.07128 | -75.01617 | 4146 ft | 208 kts | 173° |
| 2026-05-09 04:29 | 11.05698 | -75.01451 | 4146 ft | 208 kts | 173° |
| 2026-05-09 04:29 | 11.04252 | -75.01283 | 4146 ft | 208 kts | 173° |
| 2026-05-09 04:29 | 11.02825 | -75.01118 | 4146 ft | 208 kts | 173° |
| 2026-05-09 04:29 | 11.01380 | -75.00950 | 4146 ft | 208 kts | 173° |
| 2026-05-09 04:30 | 10.99950 | -75.00784 | 4146 ft | 208 kts | 173° |
| 2026-05-09 04:30 | 10.98520 | -75.00618 | 4146 ft | 208 kts | 173° |
| 2026-05-09 04:30 | 10.97071 | -75.00450 | 4146 ft | 208 kts | 173° |
| 2026-05-09 04:30 | 10.95644 | -75.00285 | 4146 ft | 208 kts | 173° |
| 2026-05-09 04:31 | 10.94195 | -75.00117 | 4146 ft | 208 kts | 173° |
| 2026-05-09 04:31 | 10.92766 | -74.99951 | 4147 ft | 208 kts | 173° |
| 2026-05-09 04:31 | 10.91343 | -74.99786 | 4148 ft | 199 kts | 173° |
| 2026-05-09 04:31 | 10.89991 | -74.99629 | 4145 ft | 197 kts | 173° |
| 2026-05-09 04:32 | 10.88623 | -74.99471 | 4146 ft | 197 kts | 173° |
| 2026-05-09 04:32 | 10.87269 | -74.99314 | 4146 ft | 198 kts | 173° |
| 2026-05-09 04:32 | 10.85892 | -74.99155 | 4146 ft | 198 kts | 173° |
| 2026-05-09 04:32 | 10.84536 | -74.98998 | 4146 ft | 198 kts | 173° |
| 2026-05-09 04:33 | 10.83159 | -74.98838 | 4146 ft | 198 kts | 173° |
| 2026-05-09 04:33 | 10.81805 | -74.98675 | 4143 ft | 198 kts | 171° |
| 2026-05-09 04:33 | 10.80544 | -74.98106 | 3971 ft | 199 kts | 142° |
| 2026-05-09 04:33 | 10.79564 | -74.97177 | 3850 ft | 191 kts | 134° |
| 2026-05-09 04:34 | 10.78665 | -74.96175 | 3696 ft | 191 kts | 131° |
| 2026-05-09 04:34 | 10.77800 | -74.95167 | 3549 ft | 191 kts | 131° |
| 2026-05-09 04:34 | 10.76955 | -74.94166 | 3365 ft | 178 kts | 130° |
| 2026-05-09 04:34 | 10.76172 | -74.93235 | 3199 ft | 171 kts | 130° |
| 2026-05-09 04:35 | 10.75410 | -74.92298 | 3147 ft | 172 kts | 123° |
| 2026-05-09 04:35 | 10.75093 | -74.91148 | 3140 ft | 173 kts | 89° |
| 2026-05-09 04:35 | 10.75455 | -74.89977 | 3077 ft | 177 kts | 57° |
| 2026-05-09 04:35 | 10.76276 | -74.89079 | 2931 ft | 175 kts | 44° |
| 2026-05-09 04:36 | 10.77144 | -74.88267 | 2726 ft | 163 kts | 41° |
| 2026-05-09 04:36 | 10.77964 | -74.87536 | 2490 ft | 149 kts | 41° |
| 2026-05-09 04:36 | 10.78720 | -74.86875 | 2312 ft | 142 kts | 40° |
| 2026-05-09 04:36 | 10.79476 | -74.86222 | 2165 ft | 141 kts | 40° |
| 2026-05-09 04:37 | 10.80220 | -74.85582 | 2009 ft | 141 kts | 40° |
| 2026-05-09 04:37 | 10.80980 | -74.84930 | 1866 ft | 146 kts | 40° |
| 2026-05-09 04:37 | 10.81767 | -74.84255 | 1687 ft | 147 kts | 40° |
| 2026-05-09 04:37 | 10.82538 | -74.83594 | 1502 ft | 146 kts | 40° |
| 2026-05-09 04:38 | 10.83315 | -74.82928 | 1312 ft | 145 kts | 40° |
| 2026-05-09 04:38 | 10.84081 | -74.82272 | 1123 ft | 145 kts | 40° |
| 2026-05-09 04:38 | 10.84837 | -74.81618 | 971 ft | 142 kts | 40° |
| 2026-05-09 04:38 | 10.85593 | -74.80964 | 779 ft | 142 kts | 40° |
| 2026-05-09 04:39 | 10.86350 | -74.80318 | 588 ft | 143 kts | 40° |
| 2026-05-09 04:39 | 10.87108 | -74.79666 | 388 ft | 140 kts | 40° |
| 2026-05-09 04:39 | 10.87831 | -74.79051 | 170 ft | 134 kts | 40° |
| 2026-05-09 04:39 | 10.88507 | -74.78472 | 107 ft | 108 kts | 40° |
| 2026-05-09 04:40 | 10.88927 | -74.78110 | 106 ft | 55 kts | 40° |
| 2026-05-09 04:40 | 10.89114 | -74.77949 | 106 ft | 18 kts | 40° |
| 2026-05-09 04:40 | 10.89165 | -74.77908 | 106 ft | 8 kts | 39° |
| 2026-05-09 04:40 | 10.89252 | -74.77831 | 106 ft | 25 kts | 42° |
| 2026-05-09 04:41 | 10.89372 | -74.77691 | 106 ft | 28 kts | 77° |
| 2026-05-09 04:41 | 10.89364 | -74.77560 | 106 ft | 10 kts | 134° |
| 2026-05-09 04:41 | 10.89277 | -74.77520 | 106 ft | 17 kts | 160° |
| 2026-05-09 04:41 | 10.89177 | -74.77488 | 106 ft | 16 kts | 174° |
| 2026-05-09 04:42 | 10.89067 | -74.77535 | 106 ft | 18 kts | 222° |
| 2026-05-09 04:42 | 10.88965 | -74.77628 | 106 ft | 20 kts | 220° |
| 2026-05-09 04:42 | 10.88932 | -74.77656 | 106 ft | 0 kts | 220° |
| 2026-05-09 04:43 | 10.88931 | -74.77657 | 106 ft | 2 kts | 220° |
| 2026-05-09 04:43 | 10.88894 | -74.77660 | 106 ft | 8 kts | 141° |
| 2026-05-09 04:44 | 10.88875 | -74.77643 | 106 ft | 0 kts | 127° |
| 2026-05-09 04:44 | 10.88873 | -74.77641 | 106 ft | 1 kts | 133° |
| 2026-05-09 04:44 | 10.88847 | -74.77619 | 106 ft | 3 kts | 131° |
| 2026-05-09 04:44 | 10.88846 | -74.77618 | 106 ft | 0 kts | 131° |